createdAt,value
2018-03-20T00:00:56.468Z,6.65
2018-03-20T00:01:59.911Z,5.53
2018-03-20T00:03:02.495Z,6.05
2018-03-20T00:04:04.998Z,6.45
2018-03-20T00:05:08.270Z,6.25
2018-03-20T00:06:11.552Z,6.37
2018-03-20T00:07:14.065Z,6.78
2018-03-20T00:08:16.579Z,5.65
2018-03-20T00:09:19.064Z,6.53
2018-03-20T00:10:21.617Z,6.30
2018-03-20T00:11:24.185Z,5.80
2018-03-20T00:12:26.682Z,6.62
2018-03-20T00:13:29.967Z,6.15
2018-03-20T00:14:32.478Z,5.62
2018-03-20T00:15:34.968Z,5.32
2018-03-20T00:16:37.468Z,5.72
2018-03-20T00:17:39.992Z,5.05
2018-03-20T00:18:42.520Z,5.87
2018-03-20T00:19:45.780Z,6.12
2018-03-20T00:20:48.281Z,5.37
2018-03-20T00:21:50.804Z,5.80
2018-03-20T00:22:53.310Z,5.10
2018-03-20T00:23:56.620Z,5.03
2018-03-20T00:24:59.115Z,4.50
2018-03-20T00:26:01.611Z,5.30
2018-03-20T00:27:04.119Z,4.50
2018-03-20T00:28:07.395Z,5.22
2018-03-20T00:29:09.909Z,5.60
2018-03-20T00:30:12.420Z,5.12
2018-03-20T00:31:14.931Z,5.68
2018-03-20T00:32:18.200Z,5.20
2018-03-20T00:33:20.705Z,5.22
2018-03-20T00:34:23.211Z,5.50
2018-03-20T00:35:25.704Z,4.22
2018-03-20T00:36:28.190Z,6.00
2018-03-20T00:37:31.450Z,5.62
2018-03-20T00:38:33.952Z,5.20
2018-03-20T00:39:37.227Z,5.40
2018-03-20T00:40:40.481Z,5.82
2018-03-20T00:41:42.988Z,4.28
2018-03-20T00:42:46.268Z,4.80
2018-03-20T00:43:48.771Z,5.50
2018-03-20T00:44:51.288Z,5.43
2018-03-20T00:45:53.788Z,4.80
2018-03-20T00:46:57.057Z,6.10
2018-03-20T00:47:59.542Z,5.53
2018-03-20T00:49:02.829Z,4.72
2018-03-20T00:50:05.357Z,5.10
2018-03-20T00:51:07.865Z,6.28
2018-03-20T00:52:10.394Z,5.45
2018-03-20T00:53:12.889Z,5.18
2018-03-20T00:54:15.405Z,4.45
2018-03-20T00:55:18.680Z,4.40
2018-03-20T00:56:22.016Z,5.90
2018-03-20T00:57:24.581Z,7.05
2018-03-20T00:58:27.087Z,5.25
2018-03-20T00:59:29.612Z,5.57
2018-03-20T01:00:32.121Z,5.20
2018-03-20T01:01:34.629Z,5.50
2018-03-20T01:02:37.890Z,5.72
2018-03-20T01:03:41.160Z,5.93
2018-03-20T01:04:43.677Z,5.78
2018-03-20T01:05:46.935Z,5.72
2018-03-20T01:06:49.425Z,5.10
2018-03-20T01:07:52.684Z,5.30
2018-03-20T01:08:55.180Z,5.22
2018-03-20T01:09:58.465Z,5.47
2018-03-20T01:11:00.971Z,5.32
2018-03-20T01:12:03.474Z,6.60
2018-03-20T01:13:06.007Z,5.30
2018-03-20T01:14:08.525Z,4.95
2018-03-20T01:15:11.040Z,5.50
2018-03-20T01:16:13.547Z,5.47
2018-03-20T01:17:16.065Z,5.57
2018-03-20T01:18:18.589Z,6.00
2018-03-20T01:19:21.092Z,5.57
2018-03-20T01:20:23.616Z,4.70
2018-03-20T01:21:26.103Z,5.55
2018-03-20T01:22:28.609Z,5.07
2018-03-20T01:23:31.109Z,4.97
2018-03-20T01:24:33.624Z,5.22
2018-03-20T01:25:36.151Z,4.95
2018-03-20T01:26:38.654Z,5.05
2018-03-20T01:27:41.162Z,5.28
2018-03-20T01:28:44.427Z,5.07
2018-03-20T01:29:46.932Z,4.82
2018-03-20T01:30:49.437Z,4.47
2018-03-20T01:31:51.946Z,4.53
2018-03-20T01:32:55.203Z,4.87
2018-03-20T01:33:57.698Z,5.15
2018-03-20T01:35:00.976Z,5.00
2018-03-20T01:36:03.489Z,5.28
2018-03-20T01:37:06.000Z,5.05
2018-03-20T01:38:08.503Z,6.05
2018-03-20T01:39:12.509Z,4.90
2018-03-20T01:40:15.009Z,5.62
2018-03-20T01:41:17.518Z,4.85
2018-03-20T01:42:20.017Z,5.40
2018-03-20T01:43:23.290Z,5.18
2018-03-20T01:44:25.788Z,5.40
2018-03-20T01:45:29.063Z,5.22
2018-03-20T01:46:32.343Z,4.87
2018-03-20T01:47:35.622Z,6.10
2018-03-20T01:48:38.115Z,5.20
2018-03-20T01:49:41.380Z,4.72
2018-03-20T01:50:43.875Z,4.40
2018-03-20T01:51:47.143Z,4.90
2018-03-20T01:53:01.514Z,4.50
2018-03-20T01:54:04.780Z,4.80
2018-03-20T01:55:07.286Z,5.05
2018-03-20T01:56:09.790Z,4.87
2018-03-20T01:57:12.313Z,4.57
2018-03-20T01:58:15.592Z,5.35
2018-03-20T01:59:18.851Z,4.85
2018-03-20T02:00:21.346Z,4.80
2018-03-20T02:01:24.612Z,4.70
2018-03-20T02:02:27.103Z,4.68
2018-03-20T02:03:29.613Z,4.95
2018-03-20T02:04:32.110Z,4.93
2018-03-20T02:05:34.612Z,4.82
2018-03-20T02:06:37.120Z,4.60
2018-03-20T02:07:39.636Z,4.20
2018-03-20T02:08:42.150Z,4.50
2018-03-20T02:09:44.644Z,4.37
2018-03-20T02:10:47.140Z,4.45
2018-03-20T02:11:49.634Z,4.90
2018-03-20T02:12:52.902Z,5.03
2018-03-20T02:13:55.418Z,5.35
2018-03-20T02:14:57.922Z,5.10
2018-03-20T02:16:00.433Z,4.65
2018-03-20T02:17:03.706Z,5.32
2018-03-20T02:18:06.204Z,4.30
2018-03-20T02:19:09.480Z,4.60
2018-03-20T02:20:11.983Z,4.85
2018-03-20T02:21:14.476Z,5.05
2018-03-20T02:22:17.063Z,4.72
2018-03-20T02:23:19.575Z,5.37
2018-03-20T02:24:22.864Z,4.47
2018-03-20T02:25:26.133Z,4.00
2018-03-20T02:26:29.399Z,4.35
2018-03-20T02:27:31.895Z,3.87
2018-03-20T02:28:34.445Z,4.82
2018-03-20T02:29:36.955Z,5.00
2018-03-20T02:30:40.249Z,4.10
2018-03-20T02:31:42.824Z,3.97
2018-03-20T02:32:45.305Z,5.18
2018-03-20T02:33:48.602Z,5.05
2018-03-20T02:34:51.884Z,4.65
2018-03-20T02:35:54.399Z,4.32
2018-03-20T02:36:57.688Z,3.97
2018-03-20T02:38:00.183Z,4.97
2018-03-20T02:39:02.709Z,4.10
2018-03-20T02:40:05.234Z,4.50
2018-03-20T02:41:07.738Z,3.70
2018-03-20T02:42:10.277Z,4.78
2018-03-20T02:43:12.766Z,3.50
2018-03-20T02:44:15.293Z,4.22
2018-03-20T02:45:17.815Z,4.93
2018-03-20T02:46:22.067Z,3.65
2018-03-20T02:47:25.334Z,4.70
2018-03-20T02:48:27.834Z,4.47
2018-03-20T02:49:30.341Z,3.85
2018-03-20T02:50:32.855Z,3.65
2018-03-20T02:51:36.123Z,4.90
2018-03-20T02:52:38.613Z,4.70
2018-03-20T02:53:41.891Z,4.50
2018-03-20T02:54:44.416Z,3.90
2018-03-20T02:55:46.931Z,4.87
2018-03-20T02:56:50.210Z,4.70
2018-03-20T02:57:52.720Z,5.18
2018-03-20T02:58:55.224Z,4.87
2018-03-20T02:59:57.721Z,4.70
2018-03-20T03:01:00.265Z,5.70
2018-03-20T03:02:02.776Z,4.93
2018-03-20T03:03:06.064Z,5.18
2018-03-20T03:04:08.556Z,4.47
2018-03-20T03:05:11.119Z,4.85
2018-03-20T03:06:14.608Z,5.05
2018-03-20T03:07:17.891Z,5.80
2018-03-20T03:08:21.164Z,5.55
2018-03-20T03:09:23.664Z,6.10
2018-03-20T03:10:26.957Z,4.78
2018-03-20T03:11:29.483Z,4.95
2018-03-20T03:12:31.990Z,4.85
2018-03-20T03:13:35.266Z,6.05
2018-03-20T03:14:38.522Z,5.07
2018-03-20T03:15:41.070Z,5.55
2018-03-20T03:16:43.624Z,5.90
2018-03-20T03:17:46.142Z,5.55
2018-03-20T03:18:48.635Z,5.35
2018-03-20T03:19:51.948Z,5.65
2018-03-20T03:20:54.470Z,5.68
2018-03-20T03:21:57.008Z,6.47
2018-03-20T03:22:59.523Z,6.03
2018-03-20T03:24:02.083Z,6.40
2018-03-20T03:26:07.499Z,6.05
2018-03-20T03:27:10.025Z,5.47
2018-03-20T03:28:13.320Z,6.10
2018-03-20T03:29:16.627Z,6.68
2018-03-20T03:30:19.899Z,6.72
2018-03-20T03:31:23.209Z,5.90
2018-03-20T03:32:25.762Z,5.70
2018-03-20T03:33:29.037Z,5.50
2018-03-20T03:34:31.571Z,6.70
2018-03-20T03:35:34.218Z,6.47
2018-03-20T03:36:36.782Z,7.12
2018-03-20T03:37:39.280Z,6.12
2018-03-20T03:38:41.773Z,5.78
2018-03-20T03:39:44.276Z,6.30
2018-03-20T03:40:47.551Z,8.20
2018-03-20T03:41:50.067Z,7.70
2018-03-20T03:42:52.561Z,6.37
2018-03-20T03:43:55.068Z,7.40
2018-03-20T03:44:57.588Z,6.22
2018-03-20T03:46:00.076Z,5.90
2018-03-20T03:47:02.588Z,6.40
2018-03-20T03:48:05.871Z,6.90
2018-03-20T03:49:09.157Z,6.82
2018-03-20T03:50:11.759Z,6.12
2018-03-20T03:51:14.262Z,7.47
2018-03-20T03:52:16.780Z,6.85
2018-03-20T03:53:20.049Z,7.60
2018-03-20T03:54:22.549Z,6.70
2018-03-20T03:55:25.045Z,7.75
2018-03-20T03:56:27.550Z,6.18
2018-03-20T03:57:30.063Z,7.55
2018-03-20T03:58:32.578Z,6.85
2018-03-20T03:59:35.076Z,7.85
2018-03-20T04:00:38.586Z,6.78
2018-03-20T04:01:41.085Z,6.82
2018-03-20T04:02:43.599Z,6.62
2018-03-20T04:03:46.101Z,7.55
2018-03-20T04:04:48.651Z,7.30
2018-03-20T04:05:53.194Z,6.82
2018-03-20T04:06:55.688Z,7.15
2018-03-20T04:07:58.204Z,6.72
2018-03-20T04:09:01.467Z,6.90
2018-03-20T04:10:04.743Z,7.10
2018-03-20T04:11:08.155Z,6.97
2018-03-20T04:12:10.675Z,7.87
2018-03-20T04:13:13.220Z,7.15
2018-03-20T04:14:16.487Z,7.57
2018-03-20T04:15:18.984Z,6.70
2018-03-20T04:16:23.122Z,7.80
2018-03-20T04:17:25.632Z,7.43
2018-03-20T04:18:29.659Z,7.40
2018-03-20T04:19:32.919Z,7.15
2018-03-20T04:20:35.420Z,7.85
2018-03-20T04:21:37.932Z,8.18
2018-03-20T04:22:40.469Z,7.32
2018-03-20T04:23:42.970Z,7.82
2018-03-20T04:24:45.550Z,7.20
2018-03-20T04:25:48.041Z,7.35
2018-03-20T04:26:50.545Z,6.93
2018-03-20T04:27:53.833Z,7.15
2018-03-20T04:28:57.110Z,7.68
2018-03-20T04:30:00.379Z,7.75
2018-03-20T04:31:02.876Z,7.75
2018-03-20T04:32:06.134Z,7.93
2018-03-20T04:33:09.527Z,7.18
2018-03-20T04:34:12.059Z,8.10
2018-03-20T04:35:15.486Z,7.75
2018-03-20T04:36:17.986Z,8.20
2018-03-20T04:37:21.246Z,8.60
2018-03-20T04:38:23.755Z,8.07
2018-03-20T04:39:26.267Z,8.40
2018-03-20T04:40:28.771Z,7.32
2018-03-20T04:41:31.260Z,7.80
2018-03-20T04:42:34.526Z,8.27
2018-03-20T04:43:37.852Z,8.73
2018-03-20T04:44:40.364Z,7.90
2018-03-20T04:45:42.869Z,7.90
2018-03-20T04:46:46.193Z,7.85
2018-03-20T04:47:48.695Z,9.93
2018-03-20T04:48:51.205Z,7.97
2018-03-20T04:49:54.499Z,8.85
2018-03-20T04:50:57.764Z,8.57
2018-03-20T04:52:00.260Z,9.13
2018-03-20T04:53:02.747Z,8.20
2018-03-20T04:54:13.664Z,8.30
2018-03-20T04:55:16.180Z,8.98
2018-03-20T04:56:19.438Z,8.23
2018-03-20T04:57:22.033Z,8.27
2018-03-20T04:58:24.472Z,8.93
2018-03-20T04:59:26.976Z,9.80
2018-03-20T05:00:29.490Z,9.40
2018-03-20T05:01:32.752Z,9.52
2018-03-20T05:02:35.244Z,8.95
2018-03-20T05:03:37.731Z,10.35
2018-03-20T05:04:40.253Z,10.05
2018-03-20T05:05:42.777Z,9.05
2018-03-20T05:06:45.298Z,10.02
2018-03-20T05:07:47.788Z,9.82
2018-03-20T05:08:50.285Z,9.82
2018-03-20T05:09:52.797Z,10.07
2018-03-20T05:10:55.314Z,10.07
2018-03-20T05:11:58.570Z,10.23
2018-03-20T05:13:01.063Z,9.15
2018-03-20T05:14:04.323Z,10.38
2018-03-20T05:15:06.822Z,10.75
2018-03-20T05:16:10.156Z,10.10
2018-03-20T05:17:12.920Z,10.70
2018-03-20T05:18:15.433Z,10.18
2018-03-20T05:19:18.585Z,10.32
2018-03-20T05:20:26.680Z,10.93
2018-03-20T05:21:30.159Z,11.55
2018-03-20T05:24:13.139Z,10.77
2018-03-20T05:25:15.641Z,10.65
2018-03-20T05:26:18.911Z,10.40
2018-03-20T05:27:22.184Z,13.00
2018-03-20T05:28:24.684Z,12.73
2018-03-20T05:29:27.971Z,12.88
2018-03-20T05:30:30.480Z,12.27
2018-03-20T05:31:32.984Z,13.02
2018-03-20T05:32:35.533Z,11.60
2018-03-20T05:33:38.054Z,12.88
2018-03-20T05:34:40.553Z,14.60
2018-03-20T05:35:43.072Z,12.73
2018-03-20T05:36:45.591Z,13.25
2018-03-20T05:37:48.136Z,13.35
2018-03-20T05:38:50.626Z,14.27
2018-03-20T05:39:53.944Z,12.80
2018-03-20T05:40:56.456Z,13.88
2018-03-20T05:41:59.757Z,11.88
2018-03-20T05:43:02.251Z,13.27
2018-03-20T05:44:04.773Z,13.77
2018-03-20T05:45:07.279Z,12.27
2018-03-20T05:46:10.599Z,13.13
2018-03-20T05:49:03.822Z,10.60
2018-03-20T05:50:12.803Z,12.30
2018-03-20T05:52:55.977Z,11.48
2018-03-20T05:53:59.238Z,11.18
2018-03-20T05:55:01.827Z,10.88
2018-03-20T05:56:05.080Z,11.88
2018-03-20T05:57:07.554Z,10.75
2018-03-20T05:58:10.225Z,10.60
2018-03-20T05:59:12.808Z,10.27
2018-03-20T06:00:15.343Z,10.80
2018-03-20T06:01:17.818Z,9.98
2018-03-20T06:02:21.366Z,9.82
2018-03-20T06:03:24.660Z,8.82
2018-03-20T06:04:28.399Z,10.45
2018-03-20T06:05:30.878Z,9.45
2018-03-20T06:06:33.417Z,9.57
2018-03-20T06:07:36.744Z,9.70
2018-03-20T06:08:39.353Z,9.60
2018-03-20T06:09:41.838Z,10.43
2018-03-20T06:10:44.378Z,10.32
2018-03-20T06:11:47.167Z,9.38
2018-03-20T06:12:49.657Z,9.45
2018-03-20T06:13:52.237Z,8.40
2018-03-20T06:14:55.515Z,10.00
2018-03-20T06:15:58.014Z,9.50
2018-03-20T06:17:00.509Z,9.75
2018-03-20T06:18:03.002Z,8.52
2018-03-20T06:19:05.765Z,7.72
2018-03-20T06:20:08.269Z,9.18
2018-03-20T06:21:10.838Z,8.32
2018-03-20T06:22:14.086Z,8.68
2018-03-20T06:23:17.048Z,8.20
2018-03-20T06:24:19.593Z,10.48
2018-03-20T06:25:22.875Z,8.45
2018-03-20T06:26:26.140Z,9.27
2018-03-20T06:27:28.653Z,9.93
2018-03-20T06:28:31.386Z,7.97
2018-03-20T06:29:33.979Z,9.20
2018-03-20T06:30:36.497Z,8.30
2018-03-20T06:31:39.749Z,7.07
2018-03-20T06:32:42.992Z,7.97
2018-03-20T06:33:45.484Z,7.18
2018-03-20T06:34:48.107Z,7.57
2018-03-20T06:35:50.576Z,7.28
2018-03-20T06:36:53.056Z,7.70
2018-03-20T06:37:55.541Z,6.85
2018-03-20T06:38:59.058Z,7.82
2018-03-20T06:40:01.654Z,8.32
2018-03-20T06:41:04.983Z,7.35
2018-03-20T06:42:07.529Z,7.43
2018-03-20T06:43:10.922Z,6.80
2018-03-20T06:44:13.714Z,6.53
2018-03-20T06:45:16.209Z,6.18
2018-03-20T06:46:18.721Z,5.50
2018-03-20T06:47:21.990Z,8.65
2018-03-20T06:48:24.460Z,6.55
2018-03-20T06:49:28.509Z,6.45
2018-03-20T06:50:31.041Z,7.30
2018-03-20T06:51:33.558Z,5.78
2018-03-20T06:52:36.130Z,6.22
2018-03-20T06:53:38.686Z,6.10
2018-03-20T06:54:41.971Z,6.57
2018-03-20T06:55:45.244Z,6.65
2018-03-20T06:56:47.759Z,5.60
2018-03-20T06:57:50.342Z,7.15
2018-03-20T06:58:52.837Z,6.32
2018-03-20T06:59:55.337Z,5.15
2018-03-20T07:00:58.598Z,5.87
2018-03-20T07:02:01.076Z,5.90
2018-03-20T07:03:03.565Z,6.32
2018-03-20T07:04:06.808Z,7.07
2018-03-20T07:05:09.302Z,6.47
2018-03-20T07:06:12.640Z,6.43
2018-03-20T07:07:15.117Z,5.55
2018-03-20T07:08:17.593Z,5.72
2018-03-20T07:09:20.076Z,5.70
2018-03-20T07:10:22.564Z,5.32
2018-03-20T07:11:25.055Z,5.03
2018-03-20T07:12:27.542Z,6.05
2018-03-20T07:13:30.782Z,4.90
2018-03-20T07:14:33.273Z,4.62
2018-03-20T07:15:35.778Z,5.70
2018-03-20T07:16:38.268Z,4.53
2018-03-20T07:17:40.772Z,5.32
2018-03-20T07:18:43.252Z,5.12
2018-03-20T07:19:45.741Z,5.10
2018-03-20T07:20:48.345Z,6.32
2018-03-20T07:21:50.853Z,4.43
2018-03-20T07:22:53.417Z,4.43
2018-03-20T07:23:55.865Z,4.70
2018-03-20T07:24:58.337Z,5.65
2018-03-20T07:26:00.841Z,4.25
2018-03-20T07:27:03.325Z,6.05
2018-03-20T07:28:05.827Z,5.55
2018-03-20T07:29:09.084Z,5.47
2018-03-20T07:30:11.871Z,5.22
2018-03-20T07:31:14.440Z,5.62
2018-03-20T07:32:16.966Z,4.50
2018-03-20T07:33:19.455Z,5.62
2018-03-20T07:34:22.014Z,4.55
2018-03-20T07:35:24.508Z,6.90
2018-03-20T07:36:27.015Z,5.12
2018-03-20T07:37:29.593Z,6.22
2018-03-20T07:38:32.161Z,4.50
2018-03-20T07:39:34.694Z,3.97
2018-03-20T07:40:37.204Z,4.87
2018-03-20T07:41:39.717Z,5.22
2018-03-20T07:42:43.269Z,5.68
2018-03-20T07:43:46.507Z,6.25
2018-03-20T07:44:49.019Z,5.47
2018-03-20T07:45:52.262Z,5.60
2018-03-20T07:46:54.741Z,4.90
2018-03-20T07:47:57.242Z,4.55
2018-03-20T07:48:59.736Z,3.33
2018-03-20T07:50:03.036Z,3.70
2018-03-20T07:51:05.525Z,3.25
2018-03-20T07:52:08.058Z,4.20
2018-03-20T07:53:10.682Z,4.90
2018-03-20T07:54:13.246Z,3.72
2018-03-20T07:55:15.729Z,3.20
2018-03-20T07:56:18.214Z,3.70
2018-03-20T07:57:20.749Z,4.40
2018-03-20T07:58:23.239Z,2.85
2018-03-20T07:59:25.719Z,3.15
2018-03-20T08:00:28.205Z,3.67
2018-03-20T08:01:30.684Z,4.30
2018-03-20T08:02:33.932Z,4.32
2018-03-20T08:03:36.422Z,4.28
2018-03-20T08:04:38.906Z,3.55
2018-03-20T08:05:41.379Z,2.75
2018-03-20T08:06:43.928Z,3.10
2018-03-20T08:07:46.617Z,3.78
2018-03-20T08:08:49.295Z,3.50
2018-03-20T08:09:51.776Z,4.15
2018-03-20T08:10:55.036Z,3.65
2018-03-20T08:11:57.531Z,4.95
2018-03-20T08:13:00.028Z,4.95
2018-03-20T08:14:02.540Z,3.60
2018-03-20T08:15:05.106Z,3.85
2018-03-20T08:16:07.591Z,3.20
2018-03-20T08:17:10.219Z,3.85
2018-03-20T08:18:13.518Z,3.95
2018-03-20T08:19:16.086Z,3.45
2018-03-20T08:20:18.666Z,2.65
2018-03-20T08:21:21.261Z,3.60
2018-03-20T08:22:24.005Z,4.40
2018-03-20T08:23:26.497Z,3.20
2018-03-20T08:24:29.033Z,4.05
2018-03-20T08:25:31.575Z,3.67
2018-03-20T08:26:34.016Z,3.10
2018-03-20T08:27:37.165Z,2.72
2018-03-20T08:28:40.824Z,3.40
2018-03-20T08:29:43.332Z,3.25
2018-03-20T08:30:45.892Z,2.90
2018-03-20T08:31:48.435Z,4.20
2018-03-20T08:32:51.011Z,4.45
2018-03-20T08:33:53.547Z,2.80
2018-03-20T08:34:56.181Z,3.15
2018-03-20T08:35:59.430Z,3.85
2018-03-20T08:37:01.956Z,3.05
2018-03-20T08:38:05.276Z,2.97
2018-03-20T08:39:07.766Z,2.62
2018-03-20T08:40:10.451Z,2.53
2018-03-20T08:41:13.250Z,2.35
2018-03-20T08:42:16.750Z,2.33
2018-03-20T08:43:20.053Z,3.00
2018-03-20T08:44:22.635Z,2.12
2018-03-20T08:45:25.114Z,2.35
2018-03-20T08:46:29.193Z,3.00
2018-03-20T08:47:31.739Z,1.98
2018-03-20T08:48:34.265Z,2.50
2018-03-20T08:49:36.792Z,2.65
2018-03-20T08:50:40.095Z,2.17
2018-03-20T08:51:42.750Z,2.60
2018-03-20T08:52:45.342Z,2.72
2018-03-20T08:53:47.990Z,3.28
2018-03-20T08:54:51.091Z,2.67
2018-03-20T08:55:54.402Z,2.90
2018-03-20T08:56:57.008Z,2.80
2018-03-20T08:57:59.526Z,2.70
2018-03-20T08:59:02.834Z,2.00
2018-03-20T09:00:06.125Z,2.80
2018-03-20T09:01:08.952Z,2.90
2018-03-20T09:02:12.491Z,2.47
2018-03-20T09:03:15.058Z,2.62
2018-03-20T09:04:17.646Z,2.58
2018-03-20T09:05:20.209Z,2.78
2018-03-20T09:06:22.813Z,2.62
2018-03-20T09:07:25.311Z,2.65
2018-03-20T09:08:27.854Z,1.85
2018-03-20T09:09:30.375Z,2.25
2018-03-20T09:10:32.938Z,1.98
2018-03-20T09:11:36.241Z,1.70
2018-03-20T09:12:39.529Z,1.70
2018-03-20T09:13:42.051Z,1.85
2018-03-20T09:14:44.673Z,1.48
2018-03-20T09:15:47.935Z,2.05
2018-03-20T09:16:50.507Z,2.22
2018-03-20T09:17:52.990Z,2.33
2018-03-20T09:18:55.481Z,1.87
2018-03-20T09:19:58.740Z,2.58
2018-03-20T09:21:01.271Z,2.17
2018-03-20T09:22:03.850Z,1.90
2018-03-20T09:23:06.426Z,1.77
2018-03-20T09:24:08.963Z,2.22
2018-03-20T09:25:11.703Z,1.70
2018-03-20T09:26:14.538Z,1.85
2018-03-20T09:27:17.126Z,2.10
2018-03-20T09:28:19.696Z,1.58
2018-03-20T09:29:22.304Z,1.80
2018-03-20T09:30:24.956Z,1.85
2018-03-20T09:31:27.557Z,1.37
2018-03-20T09:32:30.156Z,1.37
2018-03-20T09:33:32.645Z,1.95
2018-03-20T09:34:35.135Z,1.30
2018-03-20T09:35:37.646Z,1.70
2018-03-20T09:36:40.989Z,1.58
2018-03-20T09:37:43.602Z,1.25
2018-03-20T09:38:47.812Z,1.83
2018-03-20T09:39:50.389Z,1.65
2018-03-20T09:40:52.906Z,1.30
2018-03-20T09:41:55.481Z,1.67
2018-03-20T09:42:58.666Z,1.37
2018-03-20T09:44:01.277Z,1.33
2018-03-20T09:45:03.802Z,1.40
2018-03-20T09:46:06.300Z,1.40
2018-03-20T09:47:08.838Z,1.70
2018-03-20T09:48:11.377Z,1.77
2018-03-20T09:49:13.947Z,1.50
2018-03-20T09:50:16.583Z,1.60
2018-03-20T09:51:19.342Z,1.60
2018-03-20T09:52:22.099Z,1.37
2018-03-20T09:53:24.627Z,1.40
2018-03-20T09:54:28.685Z,1.40
2018-03-20T09:55:31.176Z,1.00
2018-03-20T09:56:34.413Z,1.25
2018-03-20T09:57:37.236Z,2.20
2018-03-20T09:58:39.757Z,1.55
2018-03-20T09:59:42.404Z,1.12
2018-03-20T10:00:44.980Z,1.40
2018-03-20T10:01:47.489Z,1.23
2018-03-20T10:02:50.011Z,1.30
2018-03-20T10:03:52.527Z,1.42
2018-03-20T10:04:55.067Z,1.00
2018-03-20T10:05:57.583Z,1.45
2018-03-20T10:07:00.074Z,1.37
2018-03-20T10:08:03.376Z,1.65
2018-03-20T10:09:05.952Z,1.67
2018-03-20T10:10:08.475Z,2.05
2018-03-20T10:11:10.978Z,1.40
2018-03-20T10:12:13.548Z,1.20
2018-03-20T10:13:16.114Z,1.87
2018-03-20T10:14:19.406Z,1.60
2018-03-20T10:15:22.710Z,1.33
2018-03-20T10:16:25.227Z,1.30
2018-03-20T10:17:27.736Z,1.42
2018-03-20T10:18:30.305Z,1.00
2018-03-20T10:19:33.611Z,1.30
2018-03-20T10:20:36.115Z,1.12
2018-03-20T10:21:38.629Z,1.25
2018-03-20T10:22:41.893Z,1.33
2018-03-20T10:23:44.382Z,1.20
2018-03-20T10:24:47.653Z,1.05
2018-03-20T10:25:50.149Z,1.75
2018-03-20T10:26:53.423Z,1.02
2018-03-20T10:27:55.924Z,1.40
2018-03-20T10:28:58.462Z,0.80
2018-03-20T10:30:00.979Z,1.20
2018-03-20T10:31:03.520Z,0.95
2018-03-20T10:32:06.027Z,1.30
2018-03-20T10:33:08.545Z,1.10
2018-03-20T10:34:11.102Z,0.90
2018-03-20T10:35:13.697Z,1.00
2018-03-20T10:36:16.202Z,1.30
2018-03-20T10:37:18.696Z,1.35
2018-03-20T10:38:21.221Z,0.90
2018-03-20T10:39:23.706Z,1.35
2018-03-20T10:40:26.209Z,1.23
2018-03-20T10:41:28.739Z,1.40
2018-03-20T10:42:32.001Z,1.20
2018-03-20T10:43:34.502Z,1.33
2018-03-20T10:44:37.768Z,0.95
2018-03-20T10:45:40.348Z,1.42
2018-03-20T10:46:43.624Z,1.25
2018-03-20T10:47:46.115Z,1.10
2018-03-20T10:48:49.383Z,1.15
2018-03-20T10:49:51.864Z,1.27
2018-03-20T10:50:55.361Z,1.45
2018-03-20T10:51:58.637Z,1.62
2018-03-20T10:53:01.128Z,1.30
2018-03-20T10:54:04.406Z,1.35
2018-03-20T10:55:07.729Z,1.00
2018-03-20T10:56:10.296Z,0.90
2018-03-20T10:57:12.860Z,1.25
2018-03-20T10:58:15.346Z,1.00
2018-03-20T10:59:17.836Z,1.10
2018-03-20T11:00:26.094Z,1.40
2018-03-20T11:01:31.566Z,1.00
2018-03-20T11:02:34.036Z,1.37
2018-03-20T11:03:36.574Z,0.90
2018-03-20T11:04:39.826Z,1.10
2018-03-20T11:05:42.322Z,0.93
2018-03-20T11:06:45.585Z,1.02
2018-03-20T11:07:48.107Z,1.08
2018-03-20T11:08:51.545Z,1.23
2018-03-20T11:09:54.050Z,1.50
2018-03-20T11:10:57.355Z,1.00
2018-03-20T11:11:59.930Z,0.90
2018-03-20T11:13:02.442Z,1.55
2018-03-20T11:14:04.944Z,1.10
2018-03-20T11:15:08.253Z,0.90
2018-03-20T11:16:10.818Z,1.23
2018-03-20T11:17:13.337Z,0.93
2018-03-20T11:18:15.851Z,1.30
2018-03-20T11:19:19.126Z,1.00
2018-03-20T11:20:21.616Z,0.77
2018-03-20T11:21:24.874Z,1.10
2018-03-20T11:22:27.411Z,1.15
2018-03-20T11:23:29.916Z,0.90
2018-03-20T11:24:32.413Z,1.08
2018-03-20T11:25:35.663Z,1.00
2018-03-20T11:26:38.167Z,1.02
2018-03-20T11:27:41.437Z,0.80
2018-03-20T11:28:43.917Z,1.02
2018-03-20T11:29:47.244Z,0.70
2018-03-20T11:30:49.806Z,1.05
2018-03-20T11:31:52.370Z,0.93
2018-03-20T11:32:54.889Z,1.05
2018-03-20T11:33:57.394Z,0.85
2018-03-20T11:35:00.657Z,0.70
2018-03-20T11:36:03.161Z,0.90
2018-03-20T11:37:06.429Z,1.00
2018-03-20T11:38:08.927Z,0.90
2018-03-20T11:39:12.008Z,1.20
2018-03-20T11:40:14.502Z,1.25
2018-03-20T11:41:16.992Z,0.90
2018-03-20T11:42:19.504Z,1.08
2018-03-20T11:43:22.782Z,0.95
2018-03-20T11:44:26.032Z,1.00
2018-03-20T11:45:28.522Z,0.98
2018-03-20T11:46:31.085Z,1.05
2018-03-20T11:47:33.576Z,1.33
2018-03-20T11:48:36.071Z,1.52
2018-03-20T11:49:39.341Z,1.42
2018-03-20T11:50:41.824Z,1.02
2018-03-20T11:51:45.088Z,1.20
2018-03-20T11:52:47.614Z,1.37
2018-03-20T11:53:50.940Z,1.55
2018-03-20T11:54:53.486Z,0.98
2018-03-20T11:55:56.011Z,1.20
2018-03-20T11:56:59.272Z,1.60
2018-03-20T11:58:01.784Z,1.02
2018-03-20T11:59:04.307Z,1.20
2018-03-20T12:00:06.793Z,1.40
2018-03-20T12:01:10.249Z,0.80
2018-03-20T12:02:13.788Z,0.80
2018-03-20T12:03:16.254Z,1.05
2018-03-20T12:04:18.818Z,0.80
2018-03-20T12:05:21.308Z,1.00
2018-03-20T12:06:24.570Z,0.85
2018-03-20T12:07:27.111Z,1.30
2018-03-20T12:08:42.010Z,1.37
2018-03-20T12:09:48.450Z,0.90
2018-03-20T12:10:50.932Z,1.30
2018-03-20T12:11:53.425Z,0.90
2018-03-20T12:12:55.929Z,1.20
2018-03-20T12:13:58.470Z,0.90
2018-03-20T12:15:01.843Z,1.05
2018-03-20T12:16:04.327Z,1.02
2018-03-20T12:17:07.567Z,1.08
2018-03-20T12:18:10.122Z,1.02
2018-03-20T12:19:13.411Z,1.00
2018-03-20T12:20:16.711Z,1.00
2018-03-20T12:21:19.214Z,1.20
2018-03-20T12:22:21.716Z,0.80
2018-03-20T12:23:24.204Z,0.90
2018-03-20T12:24:27.488Z,0.93
2018-03-20T12:25:29.984Z,0.98
2018-03-20T12:26:32.493Z,0.80
2018-03-20T12:27:35.016Z,1.10
2018-03-20T12:28:37.537Z,0.75
2018-03-20T12:29:40.040Z,0.68
2018-03-20T12:30:43.306Z,0.80
2018-03-20T12:31:45.826Z,0.90
2018-03-20T12:32:49.531Z,1.20
2018-03-20T12:33:52.029Z,0.95
2018-03-20T12:34:54.522Z,0.90
2018-03-20T12:35:57.027Z,0.88
2018-03-20T12:36:59.517Z,0.68
2018-03-20T12:38:02.020Z,0.80
2018-03-20T12:39:04.510Z,0.90
2018-03-20T12:40:07.009Z,0.80
2018-03-20T12:41:09.551Z,0.70
2018-03-20T12:42:12.855Z,0.90
2018-03-20T12:43:16.144Z,0.88
2018-03-20T12:44:19.411Z,0.90
2018-03-20T12:45:21.918Z,0.90
2018-03-20T12:46:24.441Z,0.75
2018-03-20T12:47:26.964Z,0.90
2018-03-20T12:48:29.443Z,1.10
2018-03-20T12:49:31.946Z,0.93
2018-03-20T12:50:35.363Z,0.90
2018-03-20T12:51:37.861Z,0.90
2018-03-20T12:52:40.372Z,1.15
2018-03-20T12:53:42.888Z,1.27
2018-03-20T12:54:46.160Z,0.90
2018-03-20T12:55:49.436Z,1.20
2018-03-20T12:56:51.971Z,1.20
2018-03-20T12:57:54.492Z,1.35
2018-03-20T12:58:57.756Z,1.52
2018-03-20T13:00:00.273Z,0.90
2018-03-20T13:01:03.236Z,0.95
2018-03-20T13:02:06.508Z,1.00
2018-03-20T13:03:09.044Z,1.00
2018-03-20T13:04:11.555Z,0.70
2018-03-20T13:05:14.060Z,0.90
2018-03-20T13:06:16.576Z,1.85
2018-03-20T13:07:19.124Z,0.95
2018-03-20T13:08:21.628Z,0.80
2018-03-20T13:09:24.125Z,0.60
2018-03-20T13:10:36.435Z,0.95
2018-03-20T13:11:39.037Z,1.20
2018-03-20T13:12:42.439Z,1.02
2018-03-20T13:13:44.936Z,1.15
2018-03-20T13:14:47.419Z,1.45
2018-03-20T13:15:49.917Z,1.05
2018-03-20T13:16:53.164Z,1.12
2018-03-20T13:17:55.755Z,1.58
2018-03-20T13:18:58.257Z,1.60
2018-03-20T13:20:01.530Z,0.88
2018-03-20T13:21:04.034Z,0.70
2018-03-20T13:22:06.523Z,1.20
2018-03-20T13:23:09.090Z,1.10
2018-03-20T13:24:11.574Z,0.90
2018-03-20T13:25:14.075Z,1.02
2018-03-20T13:26:17.453Z,1.60
2018-03-20T13:27:19.956Z,1.10
2018-03-20T13:28:24.168Z,1.00
2018-03-20T13:29:27.469Z,0.90
2018-03-20T13:30:30.716Z,1.12
2018-03-20T13:31:33.196Z,1.17
2018-03-20T13:32:35.726Z,1.20
2018-03-20T13:33:38.261Z,0.80
2018-03-20T13:34:41.571Z,0.98
2018-03-20T13:35:44.071Z,1.37
2018-03-20T13:36:46.589Z,0.90
2018-03-20T13:37:49.104Z,0.95
2018-03-20T13:38:51.650Z,0.80
2018-03-20T13:39:54.138Z,1.10
2018-03-20T13:40:56.637Z,1.00
2018-03-20T13:41:59.133Z,2.87
2018-03-20T13:43:02.419Z,0.93
2018-03-20T13:44:05.702Z,1.40
2018-03-20T13:45:09.024Z,0.70
2018-03-20T13:46:11.636Z,0.70
2018-03-20T13:47:14.241Z,1.10
2018-03-20T13:48:17.498Z,0.90
2018-03-20T13:49:20.039Z,1.27
2018-03-20T13:50:22.594Z,0.90
2018-03-20T13:51:25.858Z,1.00
2018-03-20T13:52:29.129Z,0.90
2018-03-20T13:53:31.646Z,0.90
2018-03-20T13:54:34.150Z,1.10
2018-03-20T13:55:36.672Z,0.85
2018-03-20T13:56:39.951Z,1.00
2018-03-20T13:57:43.216Z,1.15
2018-03-20T13:58:45.735Z,1.27
2018-03-20T13:59:48.244Z,0.80
2018-03-20T14:00:50.762Z,0.85